createdAt,value
2019-03-18T00:04:31.485Z,57.14
2019-03-18T00:09:33.608Z,56.92
2019-03-18T00:14:35.838Z,56.88
2019-03-18T00:19:42.772Z,56.77
2019-03-18T00:24:44.331Z,56.97
2019-03-18T00:29:46.687Z,57.17
2019-03-18T00:34:50.177Z,57.13
2019-03-18T00:39:54.255Z,57.07
2019-03-18T00:44:58.288Z,57.34
2019-03-18T00:50:00.449Z,57.40
2019-03-18T00:55:03.686Z,57.48
2019-03-18T01:00:06.191Z,57.33
2019-03-18T01:05:08.755Z,57.65
2019-03-18T01:10:10.946Z,57.23
2019-03-18T01:15:26.855Z,57.16
2019-03-18T01:20:17.926Z,56.88
2019-03-18T01:25:20.244Z,56.78
2019-03-18T01:30:22.351Z,56.76
2019-03-18T01:35:24.551Z,56.76
2019-03-18T01:40:26.646Z,56.95
2019-03-18T01:45:40.725Z,56.90
2019-03-18T01:50:41.470Z,56.82
2019-03-18T01:55:52.930Z,56.89
2019-03-18T02:01:03.473Z,57.04
2019-03-18T02:06:23.351Z,56.88
2019-03-18T02:11:26.638Z,56.91
2019-03-18T02:16:28.707Z,56.91
2019-03-18T02:21:44.623Z,57.04
2019-03-18T02:27:05.562Z,57.17
2019-03-18T02:32:07.673Z,57.01
2019-03-18T02:37:16.303Z,57.15
2019-03-18T02:42:34.455Z,57.06
2019-03-18T02:47:38.691Z,57.36
2019-03-18T02:53:14.021Z,57.42
2019-03-18T02:58:16.130Z,57.49
2019-03-18T03:03:30.681Z,57.61
2019-03-18T03:08:34.759Z,57.62
2019-03-18T03:13:48.832Z,57.26
2019-03-18T03:19:25.850Z,57.38
2019-03-18T03:24:28.432Z,57.23
2019-03-18T03:29:44.582Z,56.89
2019-03-18T03:35:25.113Z,56.35
2019-03-18T03:40:29.156Z,56.21
2019-03-18T03:45:40.993Z,55.80
2019-03-18T03:50:47.863Z,55.60
2019-03-18T03:55:50.040Z,55.25
2019-03-18T04:00:52.452Z,55.23
2019-03-18T04:06:44.740Z,55.16
2019-03-18T04:11:59.965Z,55.00
2019-03-18T04:17:04.325Z,55.15
2019-03-18T04:22:06.801Z,55.13
2019-03-18T04:27:09.018Z,55.12
2019-03-18T04:32:16.674Z,55.04
2019-03-18T04:37:56.448Z,54.92
2019-03-18T04:43:01.595Z,55.12
2019-03-18T04:48:03.637Z,55.17
2019-03-18T04:53:05.782Z,55.58
2019-03-18T04:58:07.874Z,55.62
2019-03-18T05:03:09.989Z,55.59
2019-03-18T05:08:12.149Z,55.73
2019-03-18T05:13:14.238Z,55.84
2019-03-18T05:18:16.330Z,55.95
2019-03-18T05:23:18.459Z,55.95
2019-03-18T05:28:20.582Z,55.84
2019-03-18T05:33:30.359Z,55.80
2019-03-18T05:38:32.845Z,55.75
2019-03-18T05:43:35.023Z,55.63
2019-03-18T05:49:07.882Z,55.74
2019-03-18T05:54:23.588Z,55.70
2019-03-18T05:59:47.282Z,55.78
2019-03-18T06:04:49.405Z,55.61
2019-03-18T06:09:51.563Z,55.65
2019-03-18T06:15:00.472Z,55.44
2019-03-18T06:20:07.281Z,55.20
2019-03-18T06:25:09.395Z,55.15
2019-03-18T06:30:26.203Z,55.00
2019-03-18T06:35:31.355Z,54.99
2019-03-18T06:40:33.464Z,55.26
2019-03-18T06:45:39.561Z,55.12
2019-03-18T06:50:41.899Z,54.01
2019-03-18T06:55:47.201Z,53.11
2019-03-18T07:00:49.282Z,52.33
2019-03-18T07:05:51.715Z,51.13
2019-03-18T07:10:54.038Z,50.46
2019-03-18T07:16:05.858Z,49.58
2019-03-18T07:21:13.528Z,49.07
2019-03-18T07:26:23.411Z,49.25
2019-03-18T07:31:26.963Z,49.69
2019-03-18T07:36:33.099Z,49.46
2019-03-18T07:41:39.573Z,49.53
2019-03-18T07:46:41.782Z,48.22
2019-03-18T07:51:44.862Z,48.04
2019-03-18T07:57:00.766Z,46.95
2019-03-18T08:02:03.547Z,46.23
2019-03-18T08:07:08.163Z,45.46
2019-03-18T08:12:18.821Z,46.34
2019-03-18T08:17:25.894Z,46.43
2019-03-18T08:22:28.043Z,46.93
2019-03-18T08:27:35.691Z,47.01
2019-03-18T08:32:42.069Z,47.20
2019-03-18T08:37:50.449Z,47.27
2019-03-18T08:42:56.290Z,46.85
2019-03-18T08:48:00.167Z,46.72
2019-03-18T08:53:04.945Z,46.51
2019-03-18T08:58:13.514Z,46.84
2019-03-18T09:03:19.072Z,47.07
2019-03-18T09:08:26.606Z,47.28
2019-03-18T09:13:31.891Z,47.39
2019-03-18T09:18:33.131Z,47.50
2019-03-18T09:23:35.328Z,47.50
2019-03-18T09:28:37.383Z,47.40
2019-03-18T09:33:39.443Z,47.57
2019-03-18T09:38:42.438Z,47.65
2019-03-18T09:43:44.661Z,47.76
2019-03-18T09:48:46.842Z,47.19
2019-03-18T09:53:51.309Z,46.75
2019-03-18T09:58:53.499Z,46.21
2019-03-18T10:03:55.856Z,45.96
2019-03-18T10:08:57.947Z,45.71
2019-03-18T10:14:00.255Z,46.33
2019-03-18T10:19:02.423Z,45.75
2019-03-18T10:24:05.823Z,45.67
2019-03-18T10:29:12.514Z,45.22
2019-03-18T10:34:14.627Z,43.89
2019-03-18T10:39:16.869Z,43.68
2019-03-18T10:44:22.725Z,43.46
2019-03-18T10:49:25.020Z,43.58
2019-03-18T10:54:31.069Z,42.65
2019-03-18T10:59:31.290Z,41.64
2019-03-18T11:04:33.459Z,42.10
2019-03-18T11:09:35.575Z,41.48
2019-03-18T11:14:37.890Z,41.21
2019-03-18T11:19:40.185Z,40.75
2019-03-18T11:24:42.373Z,41.18
2019-03-18T11:29:44.514Z,40.77
2019-03-18T11:34:46.748Z,40.88
2019-03-18T11:39:49.062Z,40.15
2019-03-18T11:45:02.500Z,39.24
2019-03-18T11:50:10.935Z,39.90
2019-03-18T11:55:11.169Z,40.64
2019-03-18T12:00:15.071Z,41.59
2019-03-18T12:05:19.289Z,41.77
2019-03-18T12:10:21.523Z,42.36
2019-03-18T12:15:23.897Z,42.95
2019-03-18T12:20:26.210Z,43.93
2019-03-18T12:25:28.319Z,42.32
2019-03-18T12:30:30.491Z,41.82
2019-03-18T12:35:34.505Z,40.98
2019-03-18T12:40:37.226Z,40.82
2019-03-18T12:45:39.404Z,39.63
2019-03-18T12:50:55.072Z,39.53
2019-03-18T12:55:45.955Z,39.39
2019-03-18T13:00:48.281Z,40.26
2019-03-18T13:05:53.416Z,39.25
2019-03-18T13:10:56.146Z,39.51
2019-03-18T13:16:22.810Z,39.96
2019-03-18T13:21:24.942Z,40.47
2019-03-18T13:26:27.029Z,40.11
2019-03-18T13:31:29.258Z,39.13
2019-03-18T13:36:31.314Z,38.41
2019-03-18T13:41:33.396Z,38.31
2019-03-18T13:46:35.472Z,37.90
2019-03-18T13:51:37.541Z,38.65
2019-03-18T13:56:39.584Z,38.50
2019-03-18T14:01:41.742Z,38.31
2019-03-18T14:06:43.999Z,38.08
2019-03-18T14:11:46.232Z,37.94
2019-03-18T14:16:49.777Z,37.91
2019-03-18T14:21:56.376Z,38.19
2019-03-18T14:27:03.269Z,38.67
2019-03-18T14:32:24.483Z,39.46
2019-03-18T14:37:26.552Z,40.28
2019-03-18T14:42:32.392Z,41.08
2019-03-18T14:47:34.609Z,41.49
2019-03-18T14:52:36.999Z,41.34
2019-03-18T14:57:39.228Z,44.06
2019-03-18T15:02:47.241Z,44.11
2019-03-18T15:07:49.352Z,44.49
2019-03-18T15:12:57.191Z,45.27
2019-03-18T15:17:59.423Z,44.58
2019-03-18T15:23:01.494Z,44.98
2019-03-18T15:28:03.535Z,45.37
2019-03-18T15:33:05.868Z,45.90
2019-03-18T15:38:08.006Z,45.26
2019-03-18T15:43:10.121Z,45.51
2019-03-18T15:48:12.231Z,45.53
2019-03-18T15:53:15.795Z,45.44
2019-03-18T15:58:21.691Z,45.19
2019-03-18T16:03:29.511Z,44.98
2019-03-18T16:08:32.097Z,44.97
2019-03-18T16:13:34.178Z,44.71
2019-03-18T16:18:36.264Z,44.28
2019-03-18T16:23:41.231Z,44.47
2019-03-18T16:28:46.028Z,43.78
2019-03-18T16:33:48.315Z,43.66
2019-03-18T16:38:50.364Z,42.87
2019-03-18T16:43:52.439Z,42.44
2019-03-18T16:49:07.896Z,42.22
2019-03-18T16:54:10.040Z,42.27
2019-03-18T16:59:31.497Z,42.70
2019-03-18T17:04:32.874Z,42.38
2019-03-18T17:09:35.035Z,42.69
2019-03-18T17:14:37.102Z,42.76
2019-03-18T17:19:39.299Z,42.98
2019-03-18T17:24:41.478Z,43.28
2019-03-18T17:29:43.566Z,43.40
2019-03-18T17:34:45.687Z,43.01
2019-03-18T17:39:47.786Z,43.25
2019-03-18T17:44:49.838Z,43.09
2019-03-18T17:49:51.922Z,43.36
2019-03-18T17:54:54.103Z,43.25
2019-03-18T17:59:56.277Z,43.32
2019-03-18T18:05:03.125Z,43.81
2019-03-18T18:10:05.916Z,43.72
2019-03-18T18:15:07.994Z,44.01
2019-03-18T18:20:10.407Z,43.90
2019-03-18T18:25:12.460Z,43.87
2019-03-18T18:30:17.484Z,44.14
2019-03-18T18:35:19.556Z,44.13
2019-03-18T18:40:21.660Z,44.37
2019-03-18T18:45:23.789Z,44.43
2019-03-18T18:50:25.856Z,44.46
2019-03-18T18:55:27.955Z,44.57
2019-03-18T19:00:31.934Z,44.74
2019-03-18T19:05:33.977Z,44.95
2019-03-18T19:10:36.024Z,44.86
2019-03-18T19:15:38.177Z,45.09
2019-03-18T19:20:40.485Z,44.83
2019-03-18T19:25:42.570Z,45.22
2019-03-18T19:30:46.896Z,45.04
2019-03-18T19:35:49.034Z,45.13
2019-03-18T19:40:53.096Z,45.26
2019-03-18T19:45:55.201Z,45.08
2019-03-18T19:51:02.088Z,45.09
2019-03-18T19:56:04.273Z,45.23
2019-03-18T20:01:06.313Z,45.17
2019-03-18T20:06:08.376Z,45.36
2019-03-18T20:11:10.467Z,45.21
2019-03-18T20:16:12.619Z,45.67
2019-03-18T20:21:14.732Z,45.36
2019-03-18T20:26:16.869Z,45.58
2019-03-18T20:31:25.681Z,45.95
2019-03-18T20:36:22.931Z,45.98
2019-03-18T20:41:25.101Z,46.28
2019-03-18T20:46:27.169Z,46.28
2019-03-18T20:51:29.266Z,46.43
2019-03-18T20:56:31.326Z,46.97
2019-03-18T21:01:33.362Z,47.15
2019-03-18T21:06:36.853Z,47.18
2019-03-18T21:11:39.100Z,47.42
2019-03-18T21:16:41.332Z,47.39
2019-03-18T21:21:43.552Z,47.41
2019-03-18T21:26:45.650Z,47.83
2019-03-18T21:31:47.909Z,48.21
2019-03-18T21:36:50.441Z,48.61
2019-03-18T21:41:52.520Z,48.46
2019-03-18T21:46:54.752Z,48.61
2019-03-18T21:51:56.927Z,48.69
2019-03-18T21:56:59.000Z,48.82
2019-03-18T22:02:01.245Z,49.16
2019-03-18T22:07:03.439Z,49.28
2019-03-18T22:12:05.544Z,49.31
2019-03-18T22:17:09.585Z,49.45
2019-03-18T22:22:11.837Z,49.65
2019-03-18T22:27:13.899Z,49.52
2019-03-18T22:32:17.171Z,49.50
2019-03-18T22:37:19.273Z,49.62
2019-03-18T22:42:21.699Z,50.06
2019-03-18T22:47:26.597Z,50.11
2019-03-18T22:52:28.690Z,50.01
2019-03-18T22:57:32.596Z,50.38
2019-03-18T23:02:37.514Z,50.25
2019-03-18T23:07:39.578Z,50.26
2019-03-18T23:12:41.754Z,50.42
2019-03-18T23:17:43.929Z,50.39
2019-03-18T23:22:46.400Z,50.71
2019-03-18T23:27:49.817Z,51.04
2019-03-18T23:32:56.601Z,50.93
2019-03-18T23:37:58.716Z,50.87
2019-03-18T23:43:00.775Z,51.06
2019-03-18T23:48:03.283Z,51.03
2019-03-18T23:53:05.463Z,51.31
2019-03-18T23:58:08.028Z,51.28
